Time;durP1;ratioP1;P1;durP2;ratioP2;P2;SDS_P1;SDS_P2;PMS_P1;PMS_P2;Temp;Humidity;BMP_temperature;BMP_pressure;BME280_temperature;BME280_humidity;BME280_pressure;Samples;Min_cycle;Max_cycle;Signal;HPM_P1;HPM_P2
2023/03/30 00:01:01;;;;;;;9.30;2.58;;;;;;;;;;5002742;28;20040;-58
2023/03/30 00:03:27;;;;;;;8.30;2.08;;;;;;;;;;5003382;28;20038;-58
2023/03/30 00:05:57;;;;;;;9.60;2.30;;;;;;;;;;5002201;28;20046;-58
2023/03/30 00:08:28;;;;;;;15.40;2.17;;;;;;;;;;4999116;28;20515;-58
2023/03/30 00:11:01;;;;;;;11.85;2.17;;;;;;;;;;4999364;28;20042;-59
2023/03/30 00:13:28;;;;;;;13.10;2.15;;;;;;;;;;5004286;28;20033;-58
2023/03/30 00:15:54;;;;;;;10.02;3.33;;;;;;;;;;5002693;28;20049;-59
2023/03/30 00:18:21;;;;;;;9.27;2.10;;;;;;;;;;5000363;28;20436;-59
2023/03/30 00:20:47;;;;;;;11.25;2.55;;;;;;;;;;5010049;28;20050;-58
2023/03/30 00:23:14;;;;;;;8.95;2.33;;;;;;;;;;5012202;28;20045;-58
2023/03/30 00:25:41;;;;;;;16.92;2.47;;;;;;;;;;5011125;28;20053;-59
2023/03/30 00:28:07;;;;;;;15.48;3.15;;;;;;;;;;5012043;28;20037;-59
2023/03/30 00:30:34;;;;;;;12.07;3.10;;;;;;;;;;5011531;28;20045;-59
2023/03/30 00:33:00;;;;;;;15.48;3.10;;;;;;;;;;5012160;28;20037;-59
2023/03/30 00:35:29;;;;;;;12.77;3.17;;;;;;;;;;5007943;28;20042;-59
2023/03/30 00:37:57;;;;;;;13.90;2.78;;;;;;;;;;5011245;28;20057;-59
2023/03/30 00:40:23;;;;;;;14.68;2.45;;;;;;;;;;5011430;28;20053;-59
2023/03/30 00:42:49;;;;;;;11.45;2.30;;;;;;;;;;5010967;28;20040;-59
2023/03/30 00:45:20;;;;;;;12.13;2.53;;;;;;;;;;5010198;28;20057;-59
2023/03/30 00:48:17;;;;;;;17.95;2.92;;;;;;;;;;5012193;28;20053;-58
2023/03/30 00:50:45;;;;;;;17.27;2.40;;;;;;;;;;5011317;28;20655;-58
2023/03/30 00:53:19;;;;;;;12.57;2.78;;;;;;;;;;5028330;28;20038;-58
2023/03/30 00:55:49;;;;;;;16.92;2.30;;;;;;;;;;5008630;28;20053;-58
2023/03/30 00:58:17;;;;;;;23.55;2.95;;;;;;;;;;5010451;28;20038;-58
2023/03/30 01:00:45;;;;;;;21.20;2.65;;;;;;;;;;5009292;28;20052;-58
2023/03/30 01:03:18;;;;;;;14.17;3.40;;;;;;;;;;5002415;28;20416;-58
2023/03/30 01:05:45;;;;;;;18.88;2.72;;;;;;;;;;5008686;28;20417;-58
2023/03/30 01:08:12;;;;;;;14.52;2.70;;;;;;;;;;5010208;28;20037;-59
2023/03/30 01:10:40;;;;;;;14.43;2.83;;;;;;;;;;5003734;28;20236;-58
2023/03/30 01:13:06;;;;;;;11.38;2.05;;;;;;;;;;5007645;28;20058;-58
2023/03/30 01:15:35;;;;;;;18.10;2.67;;;;;;;;;;5000524;28;20037;-58
2023/03/30 01:18:07;;;;;;;13.65;2.45;;;;;;;;;;5002953;28;20038;-59
2023/03/30 01:20:33;;;;;;;12.20;2.53;;;;;;;;;;5008890;28;20049;-58
2023/03/30 01:23:04;;;;;;;11.85;2.88;;;;;;;;;;5009416;28;20041;-58
2023/03/30 01:25:49;;;;;;;14.05;2.45;;;;;;;;;;5010727;28;20056;-58
2023/03/30 01:28:29;;;;;;;18.48;2.83;;;;;;;;;;5009466;28;20041;-60
2023/03/30 01:31:11;;;;;;;17.20;2.95;;;;;;;;;;5008385;28;20057;-58
2023/03/30 01:33:49;;;;;;;11.55;2.50;;;;;;;;;;5010741;28;20041;-58
2023/03/30 01:36:54;;;;;;;18.85;2.40;;;;;;;;;;5007168;28;20042;-58
2023/03/30 01:39:27;;;;;;;11.93;2.50;;;;;;;;;;5001357;28;20030;-58
2023/03/30 01:42:10;;;;;;;14.25;2.80;;;;;;;;;;5010749;28;20033;-58
2023/03/30 01:44:50;;;;;;;18.88;3.00;;;;;;;;;;5018674;28;20042;-58
2023/03/30 01:47:31;;;;;;;15.70;2.88;;;;;;;;;;5020229;28;20029;-58
2023/03/30 01:50:01;;;;;;;10.13;3.28;;;;;;;;;;5008303;28;20045;-57
2023/03/30 01:53:05;;;;;;;18.05;3.78;;;;;;;;;;5009548;28;20041;-57
2023/03/30 01:55:36;;;;;;;19.95;3.00;;;;;;;;;;4994959;28;20044;-57
2023/03/30 01:58:30;;;;;;;15.05;3.13;;;;;;;;;;5002257;28;20506;-57
2023/03/30 02:01:00;;;;;;;11.52;2.80;;;;;;;;;;4999825;28;20053;-57
2023/03/30 02:03:30;;;;;;;18.70;3.63;;;;;;;;;;5009190;28;20033;-57
2023/03/30 02:06:02;;;;;;;22.15;3.80;;;;;;;;;;5000320;28;20768;-58
2023/03/30 02:08:31;;;;;;;21.17;3.53;;;;;;;;;;5000077;28;20026;-58
2023/03/30 02:10:58;;;;;;;20.27;3.70;;;;;;;;;;5000954;28;20428;-58
2023/03/30 02:13:30;;;;;;;20.00;4.07;;;;;;;;;;5008455;28;20046;-58
2023/03/30 02:16:05;;;;;;;22.23;3.72;;;;;;;;;;5000916;28;20041;-58
2023/03/30 02:18:31;;;;;;;24.48;4.20;;;;;;;;;;5010133;28;20050;-59
2023/03/30 02:20:58;;;;;;;18.83;3.40;;;;;;;;;;5008498;28;20057;-57
2023/03/30 02:23:29;;;;;;;23.92;4.28;;;;;;;;;;5009516;28;20416;-57
2023/03/30 02:25:56;;;;;;;31.08;3.45;;;;;;;;;;5008942;28;20034;-59
2023/03/30 02:28:22;;;;;;;28.02;4.88;;;;;;;;;;5006671;28;20041;-57
2023/03/30 02:30:49;;;;;;;15.75;3.30;;;;;;;;;;5007795;28;20657;-57
2023/03/30 02:33:28;;;;;;;20.80;3.65;;;;;;;;;;5009557;28;20046;-58
2023/03/30 02:36:03;;;;;;;20.52;4.63;;;;;;;;;;5008775;28;20054;-57
2023/03/30 02:38:51;;;;;;;14.68;3.90;;;;;;;;;;5008304;28;20496;-57
2023/03/30 02:41:47;;;;;;;23.05;4.10;;;;;;;;;;5038312;28;20415;-57
2023/03/30 02:44:28;;;;;;;18.17;3.72;;;;;;;;;;5001306;28;20056;-57
2023/03/30 02:47:19;;;;;;;25.08;4.38;;;;;;;;;;5006103;28;20492;-57
2023/03/30 02:49:51;;;;;;;25.38;5.82;;;;;;;;;;5005376;28;20515;-59
2023/03/30 02:52:21;;;;;;;23.92;3.83;;;;;;;;;;5032838;28;20504;-58
2023/03/30 02:55:04;;;;;;;25.73;4.50;;;;;;;;;;5002450;28;20415;-59
2023/03/30 02:57:39;;;;;;;36.33;4.40;;;;;;;;;;5009551;28;20042;-59
2023/03/30 03:00:48;;;;;;;24.23;4.18;;;;;;;;;;5004946;28;20046;-59
2023/03/30 03:03:30;;;;;;;27.30;4.82;;;;;;;;;;4999762;28;20034;-59
2023/03/30 03:06:01;;;;;;;37.38;6.03;;;;;;;;;;5000709;28;20054;-59
2023/03/30 03:08:33;;;;;;;25.88;5.00;;;;;;;;;;5001546;28;20392;-59
2023/03/30 03:11:00;;;;;;;24.48;4.80;;;;;;;;;;4998722;28;20041;-59
2023/03/30 03:13:29;;;;;;;36.30;5.30;;;;;;;;;;4998296;28;20026;-59
2023/03/30 03:15:55;;;;;;;28.88;4.65;;;;;;;;;;5000003;28;20034;-59
2023/03/30 03:18:22;;;;;;;39.78;4.72;;;;;;;;;;5010802;28;20407;-59
2023/03/30 03:20:50;;;;;;;34.28;6.00;;;;;;;;;;5005808;28;20526;-59
2023/03/30 03:23:17;;;;;;;37.88;4.63;;;;;;;;;;5007329;28;20037;-59
2023/03/30 03:25:48;;;;;;;27.13;5.25;;;;;;;;;;5007482;28;20037;-59
2023/03/30 03:28:16;;;;;;;32.38;4.72;;;;;;;;;;5006581;28;20049;-59
2023/03/30 03:30:48;;;;;;;29.85;5.18;;;;;;;;;;5007484;28;20041;-59
2023/03/30 03:33:19;;;;;;;30.65;5.28;;;;;;;;;;5005796;28;20507;-59
2023/03/30 03:35:53;;;;;;;31.35;5.32;;;;;;;;;;5007370;28;20045;-59
2023/03/30 03:38:21;;;;;;;44.90;6.55;;;;;;;;;;5004228;28;20042;-59
2023/03/30 03:40:56;;;;;;;30.73;5.18;;;;;;;;;;5002448;28;20412;-59
2023/03/30 03:43:23;;;;;;;26.15;4.35;;;;;;;;;;5007422;28;20037;-59
2023/03/30 03:45:50;;;;;;;24.83;5.10;;;;;;;;;;5008803;28;20544;-59
2023/03/30 03:48:18;;;;;;;29.52;4.82;;;;;;;;;;5005287;28;20045;-59
2023/03/30 03:50:52;;;;;;;23.13;4.20;;;;;;;;;;5010365;28;20507;-59
2023/03/30 03:53:19;;;;;;;36.53;4.75;;;;;;;;;;5010200;28;20041;-58
2023/03/30 03:55:47;;;;;;;25.30;4.28;;;;;;;;;;5005883;28;20054;-59
2023/03/30 03:58:14;;;;;;;27.20;4.53;;;;;;;;;;5008485;28;20046;-58
2023/03/30 04:00:41;;;;;;;27.13;6.00;;;;;;;;;;5009234;28;20040;-59
2023/03/30 04:03:07;;;;;;;29.55;5.57;;;;;;;;;;5009904;28;20048;-59
2023/03/30 04:05:34;;;;;;;21.17;3.95;;;;;;;;;;5004169;28;20538;-59
2023/03/30 04:08:01;;;;;;;18.52;3.03;;;;;;;;;;5001972;28;20041;-59
2023/03/30 04:10:28;;;;;;;24.38;3.70;;;;;;;;;;4988198;28;20037;-57
2023/03/30 04:13:04;;;;;;;21.27;4.18;;;;;;;;;;5007118;28;20411;-60
2023/03/30 04:15:55;;;;;;;14.73;3.30;;;;;;;;;;5002935;28;20508;-58
2023/03/30 04:18:32;;;;;;;22.70;3.80;;;;;;;;;;5012613;28;20029;-57
2023/03/30 04:21:05;;;;;;;23.80;4.70;;;;;;;;;;5011660;28;20076;-55
2023/03/30 04:23:47;;;;;;;20.88;3.95;;;;;;;;;;5008952;28;20447;-56
2023/03/30 04:26:29;;;;;;;24.83;4.78;;;;;;;;;;5012208;28;20042;-55
2023/03/30 04:29:21;;;;;;;25.20;4.00;;;;;;;;;;5010187;28;20053;-56
2023/03/30 04:32:03;;;;;;;19.30;4.68;;;;;;;;;;5002658;28;20057;-56
2023/03/30 04:34:53;;;;;;;24.58;5.03;;;;;;;;;;5010491;28;20046;-56
2023/03/30 04:37:42;;;;;;;17.00;3.58;;;;;;;;;;5008478;28;20037;-56
2023/03/30 04:40:37;;;;;;;22.25;3.75;;;;;;;;;;4988094;28;20039;-56
2023/03/30 04:43:22;;;;;;;20.98;3.67;;;;;;;;;;5006776;28;20720;-56
2023/03/30 04:45:55;;;;;;;17.88;4.15;;;;;;;;;;5006518;28;20404;-56
2023/03/30 04:48:40;;;;;;;20.02;4.07;;;;;;;;;;5008803;28;20025;-58
2023/03/30 04:51:25;;;;;;;22.35;3.92;;;;;;;;;;5006893;28;20056;-58
2023/03/30 04:54:04;;;;;;;29.67;4.60;;;;;;;;;;5011736;28;20402;-57
2023/03/30 04:56:49;;;;;;;17.38;3.50;;;;;;;;;;5011124;28;20038;-58
2023/03/30 04:59:34;;;;;;;17.50;3.63;;;;;;;;;;5004256;28;20073;-56
2023/03/30 05:02:23;;;;;;;12.43;2.90;;;;;;;;;;5010243;28;20042;-56
2023/03/30 05:05:00;;;;;;;14.82;3.25;;;;;;;;;;4992411;28;20038;-57
2023/03/30 05:07:47;;;;;;;19.90;4.32;;;;;;;;;;5005925;28;20396;-57
2023/03/30 05:10:32;;;;;;;17.13;3.72;;;;;;;;;;4994883;28;20026;-57
2023/03/30 05:13:17;;;;;;;15.38;2.90;;;;;;;;;;5009216;28;20037;-57
2023/03/30 05:16:19;;;;;;;16.35;3.30;;;;;;;;;;5022798;28;20052;-56
2023/03/30 05:19:05;;;;;;;15.23;3.33;;;;;;;;;;5007315;28;20425;-56
2023/03/30 05:21:54;;;;;;;20.13;3.30;;;;;;;;;;5010918;28;20133;-57
2023/03/30 05:24:52;;;;;;;25.20;4.25;;;;;;;;;;5008220;28;20421;-56
2023/03/30 05:27:32;;;;;;;14.10;3.55;;;;;;;;;;5004432;28;20049;-57
2023/03/30 05:30:28;;;;;;;17.25;3.35;;;;;;;;;;5006948;28;20069;-57
2023/03/30 05:33:12;;;;;;;14.20;3.65;;;;;;;;;;5011123;28;20094;-56
2023/03/30 05:35:59;;;;;;;19.08;4.28;;;;;;;;;;5009396;28;20041;-56
2023/03/30 05:39:03;;;;;;;18.50;3.58;;;;;;;;;;5012950;28;20060;-56
2023/03/30 05:41:50;;;;;;;;;;;;;;;;;;5006959;28;20057;-57
2023/03/30 05:44:51;;;;;;;15.95;3.40;;;;;;;;;;5016437;28;19921;-57
2023/03/30 05:47:40;;;;;;;11.77;3.20;;;;;;;;;;5008797;28;20049;-57
2023/03/30 05:50:25;;;;;;;13.65;3.30;;;;;;;;;;5010036;28;20654;-57
2023/03/30 05:53:00;;;;;;;19.58;3.58;;;;;;;;;;5010572;28;20049;-53
2023/03/30 05:55:58;;;;;;;14.60;3.33;;;;;;;;;;5007666;28;20053;-57
2023/03/30 05:58:45;;;;;;;14.10;3.28;;;;;;;;;;5001686;28;20042;-56
2023/03/30 06:01:37;;;;;;;12.57;2.65;;;;;;;;;;5002420;28;20033;-56
2023/03/30 06:04:04;;;;;;;16.10;3.13;;;;;;;;;;5006427;28;20634;-56
2023/03/30 06:06:31;;;;;;;13.15;3.45;;;;;;;;;;4998968;28;20050;-56
2023/03/30 06:08:58;;;;;;;21.48;3.65;;;;;;;;;;5005093;28;20377;-56
2023/03/30 06:11:27;;;;;;;14.45;3.00;;;;;;;;;;5008067;28;20041;-56
2023/03/30 06:14:05;;;;;;;14.40;3.17;;;;;;;;;;5007685;28;20054;-56
2023/03/30 06:16:32;;;;;;;14.32;3.20;;;;;;;;;;5008544;28;20049;-56
2023/03/30 06:19:00;;;;;;;18.60;3.20;;;;;;;;;;5007319;28;20067;-56
2023/03/30 06:21:27;;;;;;;8.18;2.67;;;;;;;;;;5007257;28;20048;-57
2023/03/30 06:24:13;;;;;;;16.02;2.88;;;;;;;;;;5005656;28;20050;-55
2023/03/30 06:26:40;;;;;;;11.70;3.95;;;;;;;;;;5008302;28;20045;-56
2023/03/30 06:29:06;;;;;;;18.58;4.18;;;;;;;;;;5006072;28;20029;-56
2023/03/30 06:31:33;;;;;;;18.00;3.22;;;;;;;;;;5008789;28;20038;-56
2023/03/30 06:34:25;;;;;;;13.05;3.33;;;;;;;;;;5003760;28;20054;-56
2023/03/30 06:36:52;;;;;;;17.35;3.45;;;;;;;;;;5008096;28;20049;-56
2023/03/30 06:39:22;;;;;;;14.73;2.70;;;;;;;;;;5002705;28;20053;-56
2023/03/30 06:41:49;;;;;;;22.38;4.47;;;;;;;;;;5008204;28;20041;-56
2023/03/30 06:44:33;;;;;;;20.25;3.35;;;;;;;;;;5002952;28;20049;-57
2023/03/30 06:47:04;;;;;;;14.23;3.45;;;;;;;;;;5002487;28;20038;-57
2023/03/30 06:49:30;;;;;;;12.23;2.95;;;;;;;;;;5007636;28;20040;-57
2023/03/30 06:52:17;;;;;;;16.65;5.25;;;;;;;;;;5006779;28;20042;-57
2023/03/30 06:54:44;;;;;;;12.85;2.90;;;;;;;;;;5007670;28;20050;-56
2023/03/30 06:57:10;;;;;;;22.70;3.58;;;;;;;;;;5006983;28;20046;-56
2023/03/30 06:59:36;;;;;;;14.45;3.63;;;;;;;;;;4998119;28;20046;-56
2023/03/30 07:02:24;;;;;;;22.83;4.97;;;;;;;;;;5002753;28;20419;-56
2023/03/30 07:05:28;;;;;;;13.95;2.97;;;;;;;;;;5007328;28;20041;-55
2023/03/30 07:07:57;;;;;;;20.30;3.38;;;;;;;;;;5002226;28;20042;-56
2023/03/30 07:10:24;;;;;;;23.77;3.35;;;;;;;;;;5008978;28;20033;-56
2023/03/30 07:12:51;;;;;;;14.18;3.72;;;;;;;;;;5000080;28;20049;-56
2023/03/30 07:15:18;;;;;;;12.70;3.60;;;;;;;;;;5007239;28;20042;-56
2023/03/30 07:17:44;;;;;;;20.70;3.83;;;;;;;;;;5007587;28;20037;-57
2023/03/30 07:20:14;;;;;;;18.50;3.38;;;;;;;;;;5008347;28;20030;-58
2023/03/30 07:22:55;;;;;;;17.98;3.40;;;;;;;;;;5009926;28;20046;-58
2023/03/30 07:25:22;;;;;;;23.80;5.13;;;;;;;;;;4990148;28;20034;-55
2023/03/30 07:27:49;;;;;;;18.85;3.75;;;;;;;;;;4992034;28;20038;-55
2023/03/30 07:30:15;;;;;;;14.63;3.60;;;;;;;;;;5008685;28;20491;-56
2023/03/30 07:32:43;;;;;;;19.08;4.15;;;;;;;;;;5009657;28;20033;-56
2023/03/30 07:35:09;;;;;;;19.33;4.18;;;;;;;;;;5011828;28;20037;-56
2023/03/30 07:37:38;;;;;;;12.73;4.22;;;;;;;;;;5012210;28;20511;-56
2023/03/30 07:40:09;;;;;;;20.02;4.75;;;;;;;;;;5010568;28;20053;-57
2023/03/30 07:42:36;;;;;;;19.08;4.43;;;;;;;;;;5008410;28;20033;-57
2023/03/30 07:45:04;;;;;;;18.92;4.13;;;;;;;;;;5006546;28;20049;-57
2023/03/30 07:47:30;;;;;;;9.75;3.47;;;;;;;;;;5007126;28;20053;-57
2023/03/30 07:49:56;;;;;;;20.38;3.55;;;;;;;;;;5010887;28;20041;-56
2023/03/30 07:52:25;;;;;;;20.85;3.33;;;;;;;;;;5002253;28;20381;-57
2023/03/30 07:54:56;;;;;;;19.42;3.70;;;;;;;;;;5008188;28;20074;-56
2023/03/30 07:57:30;;;;;;;15.63;4.13;;;;;;;;;;5009782;28;20037;-55
2023/03/30 07:59:57;;;;;;;13.73;3.78;;;;;;;;;;5009222;28;20392;-56
2023/03/30 08:02:38;;;;;;;19.73;3.88;;;;;;;;;;5005705;28;20045;-57
2023/03/30 08:05:08;;;;;;;14.48;3.63;;;;;;;;;;5003969;28;20392;-57
2023/03/30 08:07:45;;;;;;;18.73;5.45;;;;;;;;;;5002713;28;20033;-57
2023/03/30 08:10:17;;;;;;;17.20;4.85;;;;;;;;;;4999613;28;20034;-57
2023/03/30 08:12:44;;;;;;;11.07;3.25;;;;;;;;;;5010104;28;20049;-56
2023/03/30 08:15:10;;;;;;;18.98;4.00;;;;;;;;;;5009760;28;20052;-56
2023/03/30 08:17:36;;;;;;;15.00;3.78;;;;;;;;;;5012209;28;20407;-57
2023/03/30 08:20:06;;;;;;;16.60;5.15;;;;;;;;;;5003873;28;20033;-57
2023/03/30 08:22:33;;;;;;;12.63;4.13;;;;;;;;;;5012521;28;20049;-56
2023/03/30 08:24:59;;;;;;;15.82;3.63;;;;;;;;;;5011711;28;20499;-56
2023/03/30 08:27:25;;;;;;;14.02;4.40;;;;;;;;;;5010061;28;20030;-56
2023/03/30 08:29:53;;;;;;;13.43;4.18;;;;;;;;;;5008482;28;20042;-56
2023/03/30 08:32:19;;;;;;;20.20;4.60;;;;;;;;;;5012163;28;20038;-56
2023/03/30 08:34:46;;;;;;;16.40;4.10;;;;;;;;;;5011707;28;20082;-57
2023/03/30 08:37:12;;;;;;;15.30;4.32;;;;;;;;;;5012022;28;20036;-56
2023/03/30 08:39:38;;;;;;;19.30;5.45;;;;;;;;;;5007101;28;20047;-57
2023/03/30 08:42:15;;;;;;;18.05;5.03;;;;;;;;;;4990408;28;20041;-57
2023/03/30 08:44:44;;;;;;;18.20;6.07;;;;;;;;;;5011016;28;20514;-57
2023/03/30 08:47:19;;;;;;;15.98;5.97;;;;;;;;;;5005141;28;20503;-57
2023/03/30 08:49:58;;;;;;;13.05;5.15;;;;;;;;;;5010862;28;20037;-57
2023/03/30 08:52:25;;;;;;;20.50;6.55;;;;;;;;;;5007706;28;20411;-56
2023/03/30 08:54:52;;;;;;;18.65;5.90;;;;;;;;;;5004870;28;20042;-57
2023/03/30 08:57:40;;;;;;;19.15;6.30;;;;;;;;;;5005407;28;20407;-57
2023/03/30 09:00:19;;;;;;;19.65;6.20;;;;;;;;;;5003988;28;20038;-57
2023/03/30 09:02:50;;;;;;;13.50;4.63;;;;;;;;;;5009916;28;20034;-56
2023/03/30 09:05:31;;;;;;;15.05;4.80;;;;;;;;;;5005134;28;20037;-56
2023/03/30 09:08:20;;;;;;;15.23;4.88;;;;;;;;;;5002683;28;20041;-57
2023/03/30 09:10:52;;;;;;;12.13;3.95;;;;;;;;;;5009172;28;20052;-57
2023/03/30 09:13:24;;;;;;;12.93;5.43;;;;;;;;;;5010976;28;20502;-57
2023/03/30 09:15:56;;;;;;;16.00;4.93;;;;;;;;;;5011102;28;20072;-57
2023/03/30 09:18:30;;;;;;;17.20;4.40;;;;;;;;;;5009989;28;20042;-57
2023/03/30 09:20:59;;;;;;;18.60;4.50;;;;;;;;;;5009791;28;20049;-57
2023/03/30 09:23:28;;;;;;;15.18;4.85;;;;;;;;;;5009273;28;20050;-56
2023/03/30 09:26:13;;;;;;;;;;;;;;;;;;5009046;28;20061;-57
2023/03/30 09:28:42;;;;;;;8.90;3.85;;;;;;;;;;5007818;28;19913;-57
2023/03/30 09:31:31;;;;;;;8.57;3.30;;;;;;;;;;5010464;28;20033;-57
2023/03/30 09:34:23;;;;;;;7.65;3.38;;;;;;;;;;5010760;28;20056;-57
2023/03/30 09:36:59;;;;;;;7.88;3.67;;;;;;;;;;5009429;28;20041;-57
2023/03/30 09:39:28;;;;;;;9.07;3.67;;;;;;;;;;5010431;28;20073;-57
2023/03/30 09:42:25;;;;;;;7.63;3.78;;;;;;;;;;5008378;28;20038;-57
2023/03/30 09:44:51;;;;;;;5.10;3.15;;;;;;;;;;5008038;28;20061;-57
2023/03/30 09:47:27;;;;;;;14.18;4.30;;;;;;;;;;5010933;28;20038;-56
2023/03/30 09:49:59;;;;;;;7.50;3.33;;;;;;;;;;5009364;28;20435;-57
2023/03/30 09:52:28;;;;;;;7.70;3.35;;;;;;;;;;5003602;28;20066;-57
2023/03/30 09:54:56;;;;;;;6.32;2.90;;;;;;;;;;5009110;28;20042;-56
2023/03/30 09:57:24;;;;;;;6.82;3.25;;;;;;;;;;5008577;28;20038;-56
2023/03/30 09:59:54;;;;;;;4.65;3.03;;;;;;;;;;5000962;28;20057;-56
2023/03/30 10:02:22;;;;;;;6.13;3.45;;;;;;;;;;4999676;28;20054;-57
2023/03/30 10:04:51;;;;;;;9.60;3.97;;;;;;;;;;5008172;28;20052;-57
2023/03/30 10:07:30;;;;;;;8.82;3.97;;;;;;;;;;5002840;28;20042;-57
2023/03/30 10:09:58;;;;;;;7.22;3.70;;;;;;;;;;5009259;28;20041;-57
2023/03/30 10:12:26;;;;;;;7.85;4.03;;;;;;;;;;5010629;28;20033;-55
2023/03/30 10:14:59;;;;;;;6.38;3.67;;;;;;;;;;5008398;28;20057;-56
2023/03/30 10:17:26;;;;;;;6.65;4.60;;;;;;;;;;5009404;28;20038;-56
2023/03/30 10:20:12;;;;;;;6.30;4.43;;;;;;;;;;5009040;28;20037;-55
2023/03/30 10:22:51;;;;;;;8.60;4.00;;;;;;;;;;5010010;28;20057;-57
2023/03/30 10:25:26;;;;;;;7.28;3.83;;;;;;;;;;5007589;28;20587;-57
2023/03/30 10:27:55;;;;;;;5.05;3.53;;;;;;;;;;5010282;28;20144;-56
2023/03/30 10:30:24;;;;;;;;;;;;;;;;;;5006456;28;20053;-57
2023/03/30 10:32:52;;;;;;;11.23;5.43;;;;;;;;;;5008716;28;19921;-56
2023/03/30 10:35:46;;;;;;;7.78;3.75;;;;;;;;;;5003068;28;20049;-57
2023/03/30 10:38:13;;;;;;;6.47;4.10;;;;;;;;;;5010267;28;20662;-56
2023/03/30 10:40:41;;;;;;;6.35;4.32;;;;;;;;;;5009054;28;20041;-57
2023/03/30 10:43:14;;;;;;;7.93;4.28;;;;;;;;;;5004686;28;20041;-56
2023/03/30 10:45:47;;;;;;;6.85;4.28;;;;;;;;;;5009583;28;20039;-55
2023/03/30 10:48:15;;;;;;;5.35;4.00;;;;;;;;;;5007082;28;20046;-57
2023/03/30 10:51:06;;;;;;;8.07;4.27;;;;;;;;;;5003406;28;20483;-56
2023/03/30 10:53:36;;;;;;;8.95;4.50;;;;;;;;;;5003762;28;20057;-56
2023/03/30 10:56:05;;;;;;;;;;;;;;;;;;5003450;28;20045;-56
2023/03/30 10:58:42;;;;;;;9.18;4.32;;;;;;;;;;5002707;28;19913;-56
2023/03/30 11:01:20;;;;;;;8.65;4.72;;;;;;;;;;5005754;28;20073;-56
2023/03/30 11:03:53;;;;;;;6.22;3.65;;;;;;;;;;4999795;28;20037;-56
2023/03/30 11:06:27;;;;;;;7.63;4.07;;;;;;;;;;5009568;28;20049;-56
2023/03/30 11:08:57;;;;;;;9.52;4.70;;;;;;;;;;4983932;28;20060;-56
2023/03/30 11:11:46;;;;;;;10.50;4.85;;;;;;;;;;5009330;28;20437;-56
2023/03/30 11:14:22;;;;;;;9.38;4.47;;;;;;;;;;5007880;28;20044;-56
2023/03/30 11:16:56;;;;;;;10.25;5.22;;;;;;;;;;5009816;28;20060;-57
2023/03/30 11:19:34;;;;;;;8.27;4.03;;;;;;;;;;5006063;28;20026;-56
2023/03/30 11:22:03;;;;;;;7.63;3.90;;;;;;;;;;5009180;28;20066;-56
2023/03/30 11:24:29;;;;;;;9.77;4.28;;;;;;;;;;5003291;28;20052;-56
2023/03/30 11:27:23;;;;;;;7.05;3.90;;;;;;;;;;5006156;28;20377;-55
2023/03/30 11:30:08;;;;;;;8.60;3.70;;;;;;;;;;5005645;28;20061;-55
2023/03/30 11:33:13;;;;;;;5.82;3.75;;;;;;;;;;5008510;28;20038;-56
2023/03/30 11:36:02;;;;;;;10.13;4.30;;;;;;;;;;5009487;28;20045;-58
2023/03/30 11:39:03;;;;;;;7.10;3.78;;;;;;;;;;5004569;28;20046;-57
2023/03/30 11:41:39;;;;;;;6.03;3.60;;;;;;;;;;5004869;28;20400;-57
2023/03/30 11:44:09;;;;;;;8.27;4.70;;;;;;;;;;5008606;28;20404;-58
2023/03/30 11:47:20;;;;;;;8.70;4.18;;;;;;;;;;5003940;28;20420;-58
2023/03/30 11:49:58;;;;;;;10.45;4.38;;;;;;;;;;5001429;28;20488;-58
2023/03/30 11:52:45;;;;;;;9.40;4.20;;;;;;;;;;4999800;28;20035;-58
2023/03/30 11:55:22;;;;;;;9.02;4.45;;;;;;;;;;4998949;28;20033;-58
2023/03/30 11:58:19;;;;;;;7.65;3.90;;;;;;;;;;5001650;28;20033;-57
2023/03/30 12:00:49;;;;;;;11.55;4.72;;;;;;;;;;5000023;28;20412;-58
2023/03/30 12:03:38;;;;;;;12.45;4.68;;;;;;;;;;5007061;28;20038;-58
2023/03/30 12:06:25;;;;;;;13.93;4.28;;;;;;;;;;4997585;28;20480;-57
2023/03/30 12:09:11;;;;;;;16.13;5.30;;;;;;;;;;5010121;28;20071;-57
2023/03/30 12:11:50;;;;;;;9.30;4.70;;;;;;;;;;5012367;28;20026;-57
2023/03/30 12:14:25;;;;;;;12.65;4.47;;;;;;;;;;5010830;28;20037;-56
2023/03/30 12:16:56;;;;;;;7.13;4.38;;;;;;;;;;5012112;28;20033;-57
2023/03/30 12:19:35;;;;;;;10.80;5.07;;;;;;;;;;5009889;28;20038;-56
2023/03/30 12:22:21;;;;;;;10.90;4.90;;;;;;;;;;5003656;28;20049;-57
2023/03/30 12:24:58;;;;;;;10.55;5.43;;;;;;;;;;5011796;28;20053;-57
2023/03/30 12:27:27;;;;;;;11.13;4.88;;;;;;;;;;5010188;28;20070;-58
2023/03/30 12:30:11;;;;;;;10.38;5.07;;;;;;;;;;5011219;28;20042;-57
2023/03/30 12:32:37;;;;;;;10.90;4.97;;;;;;;;;;5012272;28;20060;-57
2023/03/30 12:35:46;;;;;;;11.50;4.78;;;;;;;;;;5009583;28;20053;-57
2023/03/30 12:38:16;;;;;;;10.60;5.28;;;;;;;;;;5007996;28;20033;-57
2023/03/30 12:40:45;;;;;;;;;;;;;;;;;;5011334;28;20038;-57
2023/03/30 12:43:42;;;;;;;9.47;4.37;;;;;;;;;;5006589;28;19921;-57
2023/03/30 12:46:48;;;;;;;10.23;4.95;;;;;;;;;;5005110;28;20293;-57
2023/03/30 12:49:17;;;;;;;9.60;4.40;;;;;;;;;;5006012;28;20492;-58
2023/03/30 12:52:08;;;;;;;9.53;5.17;;;;;;;;;;5007652;28;20022;-57
2023/03/30 12:54:59;;;;;;;6.47;4.20;;;;;;;;;;5005774;28;20483;-56
2023/03/30 12:57:47;;;;;;;9.30;4.38;;;;;;;;;;5003728;28;20085;-57
2023/03/30 13:00:48;;;;;;;11.45;3.92;;;;;;;;;;5003721;28;20038;-57
2023/03/30 13:03:30;;;;;;;10.27;4.03;;;;;;;;;;5006850;28;20046;-58
2023/03/30 13:05:59;;;;;;;12.48;4.40;;;;;;;;;;5010084;28;20049;-58
2023/03/30 13:08:32;;;;;;;6.95;3.60;;;;;;;;;;5009925;28;20056;-58
2023/03/30 13:11:10;;;;;;;10.57;3.72;;;;;;;;;;5009963;28;20502;-57
2023/03/30 13:13:53;;;;;;;9.63;4.03;;;;;;;;;;5011209;28;20041;-57
2023/03/30 13:16:50;;;;;;;6.65;3.85;;;;;;;;;;5009805;28;20389;-57
2023/03/30 13:19:26;;;;;;;7.72;3.83;;;;;;;;;;5003802;28;20034;-57
2023/03/30 13:22:15;;;;;;;7.90;4.20;;;;;;;;;;5009742;28;20411;-57
2023/03/30 13:24:46;;;;;;;8.13;4.35;;;;;;;;;;5009716;28;20050;-58
2023/03/30 13:27:18;;;;;;;6.68;3.70;;;;;;;;;;5011614;28;20566;-58
2023/03/30 13:30:09;;;;;;;11.77;5.05;;;;;;;;;;5009577;28;20037;-58
2023/03/30 13:32:38;;;;;;;9.02;4.13;;;;;;;;;;5008300;28;20080;-58
2023/03/30 13:35:20;;;;;;;9.77;3.85;;;;;;;;;;5010686;28;20040;-57
2023/03/30 13:38:25;;;;;;;12.57;4.25;;;;;;;;;;5010461;28;20029;-58
2023/03/30 13:41:06;;;;;;;7.28;3.47;;;;;;;;;;5002975;28;20057;-58
2023/03/30 13:43:39;;;;;;;9.68;3.60;;;;;;;;;;5008324;28;20038;-58
2023/03/30 13:46:28;;;;;;;11.00;3.60;;;;;;;;;;5001754;28;20033;-58
2023/03/30 13:49:16;;;;;;;4.82;3.45;;;;;;;;;;5004786;28;20054;-58
2023/03/30 13:51:44;;;;;;;12.13;3.80;;;;;;;;;;5010012;28;20034;-57
2023/03/30 13:54:32;;;;;;;6.53;3.47;;;;;;;;;;5006723;28;20066;-57
2023/03/30 13:57:06;;;;;;;8.60;4.00;;;;;;;;;;5003230;28;20057;-57
2023/03/30 13:59:34;;;;;;;7.90;3.80;;;;;;;;;;5003167;28;20511;-58
2023/03/30 14:02:01;;;;;;;12.82;4.07;;;;;;;;;;5002443;28;20519;-57
2023/03/30 14:04:30;;;;;;;7.40;3.65;;;;;;;;;;5008989;28;20033;-57
2023/03/30 14:07:04;;;;;;;7.22;3.65;;;;;;;;;;5009557;28;20038;-58
2023/03/30 14:09:31;;;;;;;11.95;3.80;;;;;;;;;;5009582;28;20042;-58
2023/03/30 14:11:59;;;;;;;7.25;3.03;;;;;;;;;;5009770;28;20034;-57
2023/03/30 14:14:26;;;;;;;9.80;3.63;;;;;;;;;;5009707;28;20629;-57
2023/03/30 14:16:52;;;;;;;8.02;3.40;;;;;;;;;;5010346;28;20038;-58
2023/03/30 14:19:21;;;;;;;9.35;3.65;;;;;;;;;;5009361;28;20048;-57
2023/03/30 14:21:49;;;;;;;9.23;3.45;;;;;;;;;;5006738;28;20526;-57
2023/03/30 14:24:25;;;;;;;9.20;3.50;;;;;;;;;;5010076;28;20049;-57
2023/03/30 14:26:52;;;;;;;10.73;3.30;;;;;;;;;;5009914;28;20073;-58
2023/03/30 14:29:19;;;;;;;6.50;2.78;;;;;;;;;;5008909;28;20030;-56
2023/03/30 14:31:50;;;;;;;10.35;3.50;;;;;;;;;;5009283;28;20110;-57
2023/03/30 14:34:26;;;;;;;8.88;3.45;;;;;;;;;;5009667;28;20053;-58
2023/03/30 14:37:01;;;;;;;6.88;2.78;;;;;;;;;;5009885;28;20053;-58
2023/03/30 14:39:29;;;;;;;8.63;3.30;;;;;;;;;;5007078;28;20046;-59
2023/03/30 14:41:58;;;;;;;7.80;3.00;;;;;;;;;;5009910;28;20042;-58
2023/03/30 14:44:24;;;;;;;5.43;3.10;;;;;;;;;;5009005;28;20030;-59
2023/03/30 14:46:54;;;;;;;9.48;3.60;;;;;;;;;;5005385;28;20264;-57
2023/03/30 14:49:20;;;;;;;8.43;3.45;;;;;;;;;;5002686;28;20037;-58
2023/03/30 14:51:51;;;;;;;6.63;2.88;;;;;;;;;;5001825;28;20041;-58
2023/03/30 14:54:22;;;;;;;10.98;2.70;;;;;;;;;;5006991;28;20029;-57
2023/03/30 14:56:57;;;;;;;9.20;3.03;;;;;;;;;;5008863;28;20026;-58
2023/03/30 14:59:26;;;;;;;8.30;2.95;;;;;;;;;;5000772;28;20037;-58
2023/03/30 15:01:53;;;;;;;6.60;3.22;;;;;;;;;;5008880;28;20038;-58
2023/03/30 15:04:31;;;;;;;11.05;3.45;;;;;;;;;;5005813;28;20049;-58
2023/03/30 15:06:58;;;;;;;6.53;2.83;;;;;;;;;;5009082;28;20042;-58
2023/03/30 15:09:24;;;;;;;4.53;2.22;;;;;;;;;;5007182;28;20068;-58
2023/03/30 15:11:59;;;;;;;5.70;2.17;;;;;;;;;;5009013;28;20093;-59
2023/03/30 15:14:27;;;;;;;9.30;2.33;;;;;;;;;;5006781;28;20391;-57
2023/03/30 15:16:56;;;;;;;5.95;2.00;;;;;;;;;;5008478;28;20030;-58
2023/03/30 15:19:25;;;;;;;3.90;1.92;;;;;;;;;;5009017;28;20037;-57
2023/03/30 15:21:55;;;;;;;7.47;2.45;;;;;;;;;;5009236;28;20046;-57
2023/03/30 15:24:24;;;;;;;4.72;2.33;;;;;;;;;;5006686;28;20507;-58